Gaiuut, Mongolia
Current Conditions -  °F | °C
As of 4:00 PM on Saturday 20 Dec 2014 (Local Time) from ZMUB Reporting Station
Scattered Clouds Scattered Clouds  
Wind Chill:   Ceiling: Unl
Heat Index:   Visibility: 6mi
Dew Point: -8°   Wind: 2mph
Humidity: 61%   Direction: NA
Pressure: 30.33"   Gusts: NA
Location:  46.7°N, 100.13°E
Report Text: ZMUB 200800Z VRB01MPS 9999 SCT100 M16/M22 Q1027 NOSIG RMK QFE661.7 55 MOP
Loading
Personal Weather Stations






























Interactive Weather Map New forecast layout! Learn more

10-Day Weather Forecast

Advertisements
Track Severe Weather on mobile